sensor_id;sensor_type;location;lat;lon;timestamp;temperature;humidity
48860;DHT22;34679;51.436;-2.518;2023-07-09T00:01:51;16.00;99.90
48860;DHT22;34679;51.436;-2.518;2023-07-09T00:04:18;16.00;99.90
48860;DHT22;34679;51.436;-2.518;2023-07-09T00:06:44;16.00;99.90
48860;DHT22;34679;51.436;-2.518;2023-07-09T00:09:21;16.00;99.90
48860;DHT22;34679;51.436;-2.518;2023-07-09T00:11:47;15.90;99.90
48860;DHT22;34679;51.436;-2.518;2023-07-09T00:14:14;15.90;99.90
48860;DHT22;34679;51.436;-2.518;2023-07-09T00:16:42;15.90;99.90
48860;DHT22;34679;51.436;-2.518;2023-07-09T00:19:13;15.90;99.90
48860;DHT22;34679;51.436;-2.518;2023-07-09T00:21:41;15.90;99.90
48860;DHT22;34679;51.436;-2.518;2023-07-09T00:24:08;15.80;99.90
48860;DHT22;34679;51.436;-2.518;2023-07-09T00:26:36;15.80;99.90
48860;DHT22;34679;51.436;-2.518;2023-07-09T00:29:04;15.80;99.90
48860;DHT22;34679;51.436;-2.518;2023-07-09T00:31:30;15.70;99.90
48860;DHT22;34679;51.436;-2.518;2023-07-09T00:33:56;15.70;99.90
48860;DHT22;34679;51.436;-2.518;2023-07-09T00:36:29;15.70;99.90
48860;DHT22;34679;51.436;-2.518;2023-07-09T00:38:58;15.70;99.90
48860;DHT22;34679;51.436;-2.518;2023-07-09T00:41:37;15.70;99.90
48860;DHT22;34679;51.436;-2.518;2023-07-09T00:44:26;15.70;99.90
48860;DHT22;34679;51.436;-2.518;2023-07-09T00:49:40;15.60;99.90
48860;DHT22;34679;51.436;-2.518;2023-07-09T00:52:27;15.60;99.90
48860;DHT22;34679;51.436;-2.518;2023-07-09T00:54:59;15.60;99.90
48860;DHT22;34679;51.436;-2.518;2023-07-09T00:57:29;15.70;99.90
48860;DHT22;34679;51.436;-2.518;2023-07-09T00:59:58;15.70;99.90
48860;DHT22;34679;51.436;-2.518;2023-07-09T01:02:26;15.60;99.90
48860;DHT22;34679;51.436;-2.518;2023-07-09T01:04:57;15.60;99.90
48860;DHT22;34679;51.436;-2.518;2023-07-09T01:07:27;15.60;99.90
48860;DHT22;34679;51.436;-2.518;2023-07-09T01:09:53;15.60;99.90
48860;DHT22;34679;51.436;-2.518;2023-07-09T01:12:20;15.60;99.90
48860;DHT22;34679;51.436;-2.518;2023-07-09T01:14:48;15.60;99.90
48860;DHT22;34679;51.436;-2.518;2023-07-09T01:17:17;15.50;99.90
48860;DHT22;34679;51.436;-2.518;2023-07-09T01:19:50;15.50;99.90
48860;DHT22;34679;51.436;-2.518;2023-07-09T01:22:18;15.50;99.90
48860;DHT22;34679;51.436;-2.518;2023-07-09T01:27:29;15.40;99.90
48860;DHT22;34679;51.436;-2.518;2023-07-09T01:29:55;15.40;99.90
48860;DHT22;34679;51.436;-2.518;2023-07-09T01:32:22;15.40;99.90
48860;DHT22;34679;51.436;-2.518;2023-07-09T01:34:50;15.40;99.90
48860;DHT22;34679;51.436;-2.518;2023-07-09T01:37:20;15.40;99.90
48860;DHT22;34679;51.436;-2.518;2023-07-09T01:39:52;15.40;99.90
48860;DHT22;34679;51.436;-2.518;2023-07-09T01:42:19;15.40;99.90
48860;DHT22;34679;51.436;-2.518;2023-07-09T01:44:47;15.40;99.90
48860;DHT22;34679;51.436;-2.518;2023-07-09T01:47:13;15.40;99.90
48860;DHT22;34679;51.436;-2.518;2023-07-09T01:49:39;15.40;99.90
48860;DHT22;34679;51.436;-2.518;2023-07-09T01:52:06;15.30;99.90
48860;DHT22;34679;51.436;-2.518;2023-07-09T01:54:35;15.30;99.90
48860;DHT22;34679;51.436;-2.518;2023-07-09T01:57:25;15.30;99.90
48860;DHT22;34679;51.436;-2.518;2023-07-09T01:59:52;15.30;99.90
48860;DHT22;34679;51.436;-2.518;2023-07-09T02:02:23;15.20;99.90
48860;DHT22;34679;51.436;-2.518;2023-07-09T02:04:51;15.20;99.90
48860;DHT22;34679;51.436;-2.518;2023-07-09T02:07:18;15.20;99.90
48860;DHT22;34679;51.436;-2.518;2023-07-09T02:09:44;15.30;99.90
48860;DHT22;34679;51.436;-2.518;2023-07-09T02:12:10;15.20;99.90
48860;DHT22;34679;51.436;-2.518;2023-07-09T02:14:37;15.20;99.90
48860;DHT22;34679;51.436;-2.518;2023-07-09T02:17:03;15.20;99.90
48860;DHT22;34679;51.436;-2.518;2023-07-09T02:19:30;15.10;99.90
48860;DHT22;34679;51.436;-2.518;2023-07-09T02:21:56;15.10;99.90
48860;DHT22;34679;51.436;-2.518;2023-07-09T02:24:22;15.10;99.90
48860;DHT22;34679;51.436;-2.518;2023-07-09T02:26:51;15.10;99.90
48860;DHT22;34679;51.436;-2.518;2023-07-09T02:29:17;15.10;99.90
48860;DHT22;34679;51.436;-2.518;2023-07-09T02:31:44;15.10;99.90
48860;DHT22;34679;51.436;-2.518;2023-07-09T02:34:10;15.10;99.90
48860;DHT22;34679;51.436;-2.518;2023-07-09T02:36:36;15.10;99.90
48860;DHT22;34679;51.436;-2.518;2023-07-09T02:39:02;15.10;99.90
48860;DHT22;34679;51.436;-2.518;2023-07-09T02:41:28;15.10;99.90
48860;DHT22;34679;51.436;-2.518;2023-07-09T02:43:53;15.10;99.90
48860;DHT22;34679;51.436;-2.518;2023-07-09T02:46:19;15.10;99.90
48860;DHT22;34679;51.436;-2.518;2023-07-09T02:48:45;15.10;99.90
48860;DHT22;34679;51.436;-2.518;2023-07-09T02:51:10;15.00;99.90
48860;DHT22;34679;51.436;-2.518;2023-07-09T02:53:36;15.00;99.90
48860;DHT22;34679;51.436;-2.518;2023-07-09T02:56:02;15.10;99.90
48860;DHT22;34679;51.436;-2.518;2023-07-09T02:58:27;15.10;99.90
48860;DHT22;34679;51.436;-2.518;2023-07-09T03:00:53;15.10;99.90
48860;DHT22;34679;51.436;-2.518;2023-07-09T03:03:20;15.10;99.90
48860;DHT22;34679;51.436;-2.518;2023-07-09T03:05:47;15.00;99.90
48860;DHT22;34679;51.436;-2.518;2023-07-09T03:08:13;15.00;99.90
48860;DHT22;34679;51.436;-2.518;2023-07-09T03:10:39;15.00;99.90
48860;DHT22;34679;51.436;-2.518;2023-07-09T03:13:05;15.00;99.90
48860;DHT22;34679;51.436;-2.518;2023-07-09T03:15:31;15.00;99.90
48860;DHT22;34679;51.436;-2.518;2023-07-09T03:17:57;15.00;99.90
48860;DHT22;34679;51.436;-2.518;2023-07-09T03:20:23;15.00;99.90
48860;DHT22;34679;51.436;-2.518;2023-07-09T03:22:49;15.00;99.90
48860;DHT22;34679;51.436;-2.518;2023-07-09T03:25:14;15.00;99.90
48860;DHT22;34679;51.436;-2.518;2023-07-09T03:27:40;15.00;99.90
48860;DHT22;34679;51.436;-2.518;2023-07-09T03:30:06;14.90;99.90
48860;DHT22;34679;51.436;-2.518;2023-07-09T03:32:32;14.90;99.90
48860;DHT22;34679;51.436;-2.518;2023-07-09T03:34:58;14.90;99.90
48860;DHT22;34679;51.436;-2.518;2023-07-09T03:37:23;15.00;99.90
48860;DHT22;34679;51.436;-2.518;2023-07-09T03:39:49;15.00;99.90
48860;DHT22;34679;51.436;-2.518;2023-07-09T03:42:15;15.00;99.90
48860;DHT22;34679;51.436;-2.518;2023-07-09T03:44:40;14.90;99.90
48860;DHT22;34679;51.436;-2.518;2023-07-09T03:47:06;14.90;99.90
48860;DHT22;34679;51.436;-2.518;2023-07-09T03:49:33;14.90;99.90
48860;DHT22;34679;51.436;-2.518;2023-07-09T03:51:58;14.80;99.90
48860;DHT22;34679;51.436;-2.518;2023-07-09T03:54:24;14.80;99.90
48860;DHT22;34679;51.436;-2.518;2023-07-09T03:56:50;14.80;99.90
48860;DHT22;34679;51.436;-2.518;2023-07-09T03:59:15;14.90;99.90
48860;DHT22;34679;51.436;-2.518;2023-07-09T04:01:41;14.90;99.90
48860;DHT22;34679;51.436;-2.518;2023-07-09T04:04:14;14.90;99.90
48860;DHT22;34679;51.436;-2.518;2023-07-09T04:06:40;14.80;99.90
48860;DHT22;34679;51.436;-2.518;2023-07-09T04:09:06;14.70;99.90
48860;DHT22;34679;51.436;-2.518;2023-07-09T04:11:32;14.70;99.90
48860;DHT22;34679;51.436;-2.518;2023-07-09T04:13:58;14.80;99.90
48860;DHT22;34679;51.436;-2.518;2023-07-09T04:16:24;14.80;99.90
48860;DHT22;34679;51.436;-2.518;2023-07-09T04:18:50;14.80;99.90
48860;DHT22;34679;51.436;-2.518;2023-07-09T04:21:15;14.80;99.90
48860;DHT22;34679;51.436;-2.518;2023-07-09T04:23:41;14.80;99.90
48860;DHT22;34679;51.436;-2.518;2023-07-09T04:26:12;14.80;99.90
48860;DHT22;34679;51.436;-2.518;2023-07-09T04:28:38;14.80;99.90
48860;DHT22;34679;51.436;-2.518;2023-07-09T04:31:03;14.80;99.90
48860;DHT22;34679;51.436;-2.518;2023-07-09T04:33:29;14.80;99.90
48860;DHT22;34679;51.436;-2.518;2023-07-09T04:35:55;14.70;99.90
48860;DHT22;34679;51.436;-2.518;2023-07-09T04:38:21;14.70;99.90
48860;DHT22;34679;51.436;-2.518;2023-07-09T04:40:48;14.70;99.90
48860;DHT22;34679;51.436;-2.518;2023-07-09T04:43:13;14.80;99.90
48860;DHT22;34679;51.436;-2.518;2023-07-09T04:45:39;14.80;99.90
48860;DHT22;34679;51.436;-2.518;2023-07-09T04:48:05;14.90;99.90
48860;DHT22;34679;51.436;-2.518;2023-07-09T04:50:31;14.80;99.90
48860;DHT22;34679;51.436;-2.518;2023-07-09T04:52:58;14.90;99.90
48860;DHT22;34679;51.436;-2.518;2023-07-09T04:55:24;14.80;99.90
48860;DHT22;34679;51.436;-2.518;2023-07-09T04:57:50;14.80;99.90
48860;DHT22;34679;51.436;-2.518;2023-07-09T05:00:16;14.90;99.90
48860;DHT22;34679;51.436;-2.518;2023-07-09T05:02:41;14.80;99.90
48860;DHT22;34679;51.436;-2.518;2023-07-09T05:05:07;14.90;99.90
48860;DHT22;34679;51.436;-2.518;2023-07-09T05:07:33;15.00;99.90
48860;DHT22;34679;51.436;-2.518;2023-07-09T05:09:59;15.10;99.90
48860;DHT22;34679;51.436;-2.518;2023-07-09T05:12:27;15.10;99.90
48860;DHT22;34679;51.436;-2.518;2023-07-09T05:14:54;15.10;99.90
48860;DHT22;34679;51.436;-2.518;2023-07-09T05:17:19;15.10;99.90
48860;DHT22;34679;51.436;-2.518;2023-07-09T05:19:45;15.20;99.90
48860;DHT22;34679;51.436;-2.518;2023-07-09T05:22:11;15.20;99.90
48860;DHT22;34679;51.436;-2.518;2023-07-09T05:24:36;15.20;99.90
48860;DHT22;34679;51.436;-2.518;2023-07-09T05:27:02;15.20;99.90
48860;DHT22;34679;51.436;-2.518;2023-07-09T05:29:28;15.20;99.90
48860;DHT22;34679;51.436;-2.518;2023-07-09T05:31:54;15.20;99.90
48860;DHT22;34679;51.436;-2.518;2023-07-09T05:34:20;15.10;99.90
48860;DHT22;34679;51.436;-2.518;2023-07-09T05:36:46;15.20;99.90
48860;DHT22;34679;51.436;-2.518;2023-07-09T05:39:12;15.20;99.90
48860;DHT22;34679;51.436;-2.518;2023-07-09T05:41:38;15.30;99.90
48860;DHT22;34679;51.436;-2.518;2023-07-09T05:44:04;15.30;99.90
48860;DHT22;34679;51.436;-2.518;2023-07-09T05:46:34;15.30;99.90
48860;DHT22;34679;51.436;-2.518;2023-07-09T05:49:02;15.30;99.90
48860;DHT22;34679;51.436;-2.518;2023-07-09T05:51:28;15.30;99.90
48860;DHT22;34679;51.436;-2.518;2023-07-09T05:53:54;15.30;99.90
48860;DHT22;34679;51.436;-2.518;2023-07-09T05:56:20;15.20;99.90
48860;DHT22;34679;51.436;-2.518;2023-07-09T05:58:46;15.20;99.90
48860;DHT22;34679;51.436;-2.518;2023-07-09T06:01:11;15.20;99.90
48860;DHT22;34679;51.436;-2.518;2023-07-09T06:03:38;15.20;99.90
48860;DHT22;34679;51.436;-2.518;2023-07-09T06:06:03;15.30;99.90
48860;DHT22;34679;51.436;-2.518;2023-07-09T06:08:29;15.30;99.90
48860;DHT22;34679;51.436;-2.518;2023-07-09T06:10:57;15.40;99.90
48860;DHT22;34679;51.436;-2.518;2023-07-09T06:13:24;15.40;99.90
48860;DHT22;34679;51.436;-2.518;2023-07-09T06:15:51;15.50;99.90
48860;DHT22;34679;51.436;-2.518;2023-07-09T06:18:18;15.50;99.90
48860;DHT22;34679;51.436;-2.518;2023-07-09T06:20:52;15.60;99.90
48860;DHT22;34679;51.436;-2.518;2023-07-09T06:23:19;15.70;99.90
48860;DHT22;34679;51.436;-2.518;2023-07-09T06:25:45;15.90;99.90
48860;DHT22;34679;51.436;-2.518;2023-07-09T06:28:18;16.00;99.90
48860;DHT22;34679;51.436;-2.518;2023-07-09T06:30:45;16.10;99.90
48860;DHT22;34679;51.436;-2.518;2023-07-09T06:33:13;16.20;99.90
48860;DHT22;34679;51.436;-2.518;2023-07-09T06:35:39;16.20;99.90
48860;DHT22;34679;51.436;-2.518;2023-07-09T06:38:05;16.20;99.90
48860;DHT22;34679;51.436;-2.518;2023-07-09T06:40:31;16.20;99.90
48860;DHT22;34679;51.436;-2.518;2023-07-09T06:42:57;16.20;99.90
48860;DHT22;34679;51.436;-2.518;2023-07-09T06:45:24;16.30;99.90
48860;DHT22;34679;51.436;-2.518;2023-07-09T06:47:50;16.40;99.90
48860;DHT22;34679;51.436;-2.518;2023-07-09T06:50:15;16.50;99.90
48860;DHT22;34679;51.436;-2.518;2023-07-09T06:52:41;16.70;99.90
48860;DHT22;34679;51.436;-2.518;2023-07-09T06:55:07;16.80;99.90
48860;DHT22;34679;51.436;-2.518;2023-07-09T06:57:33;16.70;99.90
48860;DHT22;34679;51.436;-2.518;2023-07-09T06:59:59;16.70;99.90
48860;DHT22;34679;51.436;-2.518;2023-07-09T07:02:25;16.60;99.90
48860;DHT22;34679;51.436;-2.518;2023-07-09T07:04:51;16.60;99.90
48860;DHT22;34679;51.436;-2.518;2023-07-09T07:07:16;16.50;99.90
48860;DHT22;34679;51.436;-2.518;2023-07-09T07:09:42;16.50;99.90
48860;DHT22;34679;51.436;-2.518;2023-07-09T07:12:08;16.50;99.90
48860;DHT22;34679;51.436;-2.518;2023-07-09T07:14:34;16.50;99.90
48860;DHT22;34679;51.436;-2.518;2023-07-09T07:16:59;16.60;99.90
48860;DHT22;34679;51.436;-2.518;2023-07-09T07:19:26;16.80;99.90
48860;DHT22;34679;51.436;-2.518;2023-07-09T07:21:52;16.90;99.90
48860;DHT22;34679;51.436;-2.518;2023-07-09T07:24:18;17.10;99.90
48860;DHT22;34679;51.436;-2.518;2023-07-09T07:26:44;17.30;99.90
48860;DHT22;34679;51.436;-2.518;2023-07-09T07:29:09;17.60;99.90
48860;DHT22;34679;51.436;-2.518;2023-07-09T07:31:35;18.00;99.90
48860;DHT22;34679;51.436;-2.518;2023-07-09T07:34:01;18.90;99.90
48860;DHT22;34679;51.436;-2.518;2023-07-09T07:36:26;20.40;99.90
48860;DHT22;34679;51.436;-2.518;2023-07-09T07:38:52;21.70;99.90
48860;DHT22;34679;51.436;-2.518;2023-07-09T07:41:18;22.70;99.90
48860;DHT22;34679;51.436;-2.518;2023-07-09T07:43:43;24.30;99.90
48860;DHT22;34679;51.436;-2.518;2023-07-09T07:46:09;26.10;99.90
48860;DHT22;34679;51.436;-2.518;2023-07-09T07:48:35;27.40;99.90
48860;DHT22;34679;51.436;-2.518;2023-07-09T07:51:02;27.00;99.90
48860;DHT22;34679;51.436;-2.518;2023-07-09T07:53:29;26.40;99.90
48860;DHT22;34679;51.436;-2.518;2023-07-09T07:55:59;26.10;99.90
48860;DHT22;34679;51.436;-2.518;2023-07-09T07:58:27;24.90;99.90
48860;DHT22;34679;51.436;-2.518;2023-07-09T08:00:56;24.60;99.90
48860;DHT22;34679;51.436;-2.518;2023-07-09T08:03:23;25.00;99.90
48860;DHT22;34679;51.436;-2.518;2023-07-09T08:05:50;25.00;99.90
48860;DHT22;34679;51.436;-2.518;2023-07-09T08:08:16;24.90;99.90
48860;DHT22;34679;51.436;-2.518;2023-07-09T08:10:42;25.10;99.90
48860;DHT22;34679;51.436;-2.518;2023-07-09T08:13:07;24.60;99.90
48860;DHT22;34679;51.436;-2.518;2023-07-09T08:15:34;24.80;99.90
48860;DHT22;34679;51.436;-2.518;2023-07-09T08:18:00;24.50;99.90
48860;DHT22;34679;51.436;-2.518;2023-07-09T08:20:26;24.20;99.90
48860;DHT22;34679;51.436;-2.518;2023-07-09T08:22:51;24.50;99.90
48860;DHT22;34679;51.436;-2.518;2023-07-09T08:25:18;24.30;99.90
48860;DHT22;34679;51.436;-2.518;2023-07-09T08:27:43;23.70;99.90
48860;DHT22;34679;51.436;-2.518;2023-07-09T08:30:09;23.20;99.90
48860;DHT22;34679;51.436;-2.518;2023-07-09T08:32:35;23.00;99.90
48860;DHT22;34679;51.436;-2.518;2023-07-09T08:35:01;22.40;99.90
48860;DHT22;34679;51.436;-2.518;2023-07-09T08:37:26;22.20;99.90
48860;DHT22;34679;51.436;-2.518;2023-07-09T08:39:52;21.70;99.90
48860;DHT22;34679;51.436;-2.518;2023-07-09T08:42:31;21.50;99.90
48860;DHT22;34679;51.436;-2.518;2023-07-09T08:50:12;21.30;99.90
48860;DHT22;34679;51.436;-2.518;2023-07-09T08:52:42;21.50;99.90
48860;DHT22;34679;51.436;-2.518;2023-07-09T08:55:35;21.70;99.90
48860;DHT22;34679;51.436;-2.518;2023-07-09T08:58:27;22.00;99.90
48860;DHT22;34679;51.436;-2.518;2023-07-09T09:00:54;22.40;99.90
48860;DHT22;34679;51.436;-2.518;2023-07-09T09:05:55;22.70;99.90
48860;DHT22;34679;51.436;-2.518;2023-07-09T09:08:38;22.90;99.90
48860;DHT22;34679;51.436;-2.518;2023-07-09T09:13:39;22.90;99.90
48860;DHT22;34679;51.436;-2.518;2023-07-09T09:16:14;22.90;99.90
48860;DHT22;34679;51.436;-2.518;2023-07-09T09:18:43;22.90;99.90
48860;DHT22;34679;51.436;-2.518;2023-07-09T09:23:44;23.40;99.90
48860;DHT22;34679;51.436;-2.518;2023-07-09T09:26:31;23.90;99.90
48860;DHT22;34679;51.436;-2.518;2023-07-09T09:28:57;24.40;99.90
48860;DHT22;34679;51.436;-2.518;2023-07-09T09:31:27;24.30;99.90
48860;DHT22;34679;51.436;-2.518;2023-07-09T09:33:53;24.20;99.90
48860;DHT22;34679;51.436;-2.518;2023-07-09T09:36:25;23.60;99.90
48860;DHT22;34679;51.436;-2.518;2023-07-09T09:38:52;23.10;99.90
48860;DHT22;34679;51.436;-2.518;2023-07-09T09:41:21;22.70;99.90
48860;DHT22;34679;51.436;-2.518;2023-07-09T09:43:48;22.50;99.90
48860;DHT22;34679;51.436;-2.518;2023-07-09T09:46:22;22.50;99.90
48860;DHT22;34679;51.436;-2.518;2023-07-09T09:48:49;22.80;99.90
48860;DHT22;34679;51.436;-2.518;2023-07-09T09:51:17;23.00;99.90
48860;DHT22;34679;51.436;-2.518;2023-07-09T09:53:50;23.00;99.90
48860;DHT22;34679;51.436;-2.518;2023-07-09T09:56:47;22.90;99.90
48860;DHT22;34679;51.436;-2.518;2023-07-09T09:59:18;23.20;99.90
48860;DHT22;34679;51.436;-2.518;2023-07-09T10:01:45;23.60;99.90
48860;DHT22;34679;51.436;-2.518;2023-07-09T10:04:18;23.90;99.90
48860;DHT22;34679;51.436;-2.518;2023-07-09T10:06:49;24.40;99.90
48860;DHT22;34679;51.436;-2.518;2023-07-09T10:11:46;24.60;99.90
48860;DHT22;34679;51.436;-2.518;2023-07-09T10:16:53;23.80;99.90
48860;DHT22;34679;51.436;-2.518;2023-07-09T10:19:30;23.60;99.90
48860;DHT22;34679;51.436;-2.518;2023-07-09T10:22:13;23.50;99.90
48860;DHT22;34679;51.436;-2.518;2023-07-09T10:24:57;23.10;99.90
48860;DHT22;34679;51.436;-2.518;2023-07-09T10:27:59;23.00;99.90
48860;DHT22;34679;51.436;-2.518;2023-07-09T10:36:45;22.70;99.90
48860;DHT22;34679;51.436;-2.518;2023-07-09T10:39:17;22.60;99.90
48860;DHT22;34679;51.436;-2.518;2023-07-09T10:41:46;22.70;99.90
48860;DHT22;34679;51.436;-2.518;2023-07-09T10:44:30;22.60;99.90
48860;DHT22;34679;51.436;-2.518;2023-07-09T10:47:00;22.50;99.90
48860;DHT22;34679;51.436;-2.518;2023-07-09T10:49:33;22.60;99.90
48860;DHT22;34679;51.436;-2.518;2023-07-09T10:52:16;22.60;99.90
48860;DHT22;34679;51.436;-2.518;2023-07-09T10:55:05;22.40;99.90
48860;DHT22;34679;51.436;-2.518;2023-07-09T11:00:37;22.00;99.90
48860;DHT22;34679;51.436;-2.518;2023-07-09T11:03:19;21.80;99.90
48860;DHT22;34679;51.436;-2.518;2023-07-09T11:05:46;21.80;99.90
48860;DHT22;34679;51.436;-2.518;2023-07-09T11:08:16;21.80;99.90
48860;DHT22;34679;51.436;-2.518;2023-07-09T11:10:54;22.10;99.90
48860;DHT22;34679;51.436;-2.518;2023-07-09T11:13:48;22.60;99.90
48860;DHT22;34679;51.436;-2.518;2023-07-09T11:16:24;23.10;99.90
48860;DHT22;34679;51.436;-2.518;2023-07-09T11:19:02;23.60;99.90
48860;DHT22;34679;51.436;-2.518;2023-07-09T11:21:29;24.00;99.90
48860;DHT22;34679;51.436;-2.518;2023-07-09T11:23:57;24.50;99.90
48860;DHT22;34679;51.436;-2.518;2023-07-09T11:29:06;25.00;99.90
48860;DHT22;34679;51.436;-2.518;2023-07-09T11:31:41;24.80;99.90
48860;DHT22;34679;51.436;-2.518;2023-07-09T11:34:17;25.00;99.90
48860;DHT22;34679;51.436;-2.518;2023-07-09T11:42:22;24.90;99.90
48860;DHT22;34679;51.436;-2.518;2023-07-09T11:44:49;24.70;99.90
48860;DHT22;34679;51.436;-2.518;2023-07-09T11:50:28;24.50;99.90
48860;DHT22;34679;51.436;-2.518;2023-07-09T11:55:46;24.40;99.90
48860;DHT22;34679;51.436;-2.518;2023-07-09T11:58:15;24.60;99.90
48860;DHT22;34679;51.436;-2.518;2023-07-09T12:00:48;24.60;99.90
48860;DHT22;34679;51.436;-2.518;2023-07-09T12:03:27;24.70;99.90
48860;DHT22;34679;51.436;-2.518;2023-07-09T12:06:04;24.60;99.90
48860;DHT22;34679;51.436;-2.518;2023-07-09T12:08:38;24.60;99.90
48860;DHT22;34679;51.436;-2.518;2023-07-09T12:11:05;24.90;99.90
48860;DHT22;34679;51.436;-2.518;2023-07-09T12:13:40;25.10;99.90
48860;DHT22;34679;51.436;-2.518;2023-07-09T12:16:23;24.80;99.90
48860;DHT22;34679;51.436;-2.518;2023-07-09T12:18:49;24.90;99.90
48860;DHT22;34679;51.436;-2.518;2023-07-09T12:21:14;25.20;99.90
48860;DHT22;34679;51.436;-2.518;2023-07-09T12:23:41;25.20;99.90
48860;DHT22;34679;51.436;-2.518;2023-07-09T12:26:13;25.20;99.90
48860;DHT22;34679;51.436;-2.518;2023-07-09T12:28:40;25.00;99.90
48860;DHT22;34679;51.436;-2.518;2023-07-09T12:31:13;24.80;99.90
48860;DHT22;34679;51.436;-2.518;2023-07-09T12:33:47;24.60;99.90
48860;DHT22;34679;51.436;-2.518;2023-07-09T12:36:14;24.00;99.90
48860;DHT22;34679;51.436;-2.518;2023-07-09T12:38:45;23.60;99.90
48860;DHT22;34679;51.436;-2.518;2023-07-09T12:44:00;23.90;99.90
48860;DHT22;34679;51.436;-2.518;2023-07-09T12:46:26;24.10;99.90
48860;DHT22;34679;51.436;-2.518;2023-07-09T12:48:54;24.00;99.90
48860;DHT22;34679;51.436;-2.518;2023-07-09T12:51:23;23.80;99.90
48860;DHT22;34679;51.436;-2.518;2023-07-09T12:54:18;23.90;99.90
48860;DHT22;34679;51.436;-2.518;2023-07-09T12:56:45;24.20;99.90
48860;DHT22;34679;51.436;-2.518;2023-07-09T12:59:35;24.50;99.90
48860;DHT22;34679;51.436;-2.518;2023-07-09T13:02:12;24.80;99.90
48860;DHT22;34679;51.436;-2.518;2023-07-09T13:04:39;24.80;99.90
48860;DHT22;34679;51.436;-2.518;2023-07-09T13:07:18;24.90;99.90
48860;DHT22;34679;51.436;-2.518;2023-07-09T13:09:51;24.90;99.90
48860;DHT22;34679;51.436;-2.518;2023-07-09T13:12:18;24.80;99.90
48860;DHT22;34679;51.436;-2.518;2023-07-09T13:14:56;24.80;99.90
48860;DHT22;34679;51.436;-2.518;2023-07-09T13:17:22;24.50;99.90
48860;DHT22;34679;51.436;-2.518;2023-07-09T13:19:47;24.20;99.90
48860;DHT22;34679;51.436;-2.518;2023-07-09T13:22:17;24.20;99.90
48860;DHT22;34679;51.436;-2.518;2023-07-09T13:24:45;24.30;99.90
48860;DHT22;34679;51.436;-2.518;2023-07-09T13:27:15;24.30;99.90
48860;DHT22;34679;51.436;-2.518;2023-07-09T13:29:41;24.40;99.90
48860;DHT22;34679;51.436;-2.518;2023-07-09T13:32:16;24.40;99.90
48860;DHT22;34679;51.436;-2.518;2023-07-09T13:34:42;24.30;99.90
48860;DHT22;34679;51.436;-2.518;2023-07-09T13:37:12;24.40;99.90
48860;DHT22;34679;51.436;-2.518;2023-07-09T13:39:39;24.30;99.90
48860;DHT22;34679;51.436;-2.518;2023-07-09T13:42:10;24.30;99.90
48860;DHT22;34679;51.436;-2.518;2023-07-09T13:44:36;24.30;99.90
48860;DHT22;34679;51.436;-2.518;2023-07-09T13:47:03;24.40;99.90
48860;DHT22;34679;51.436;-2.518;2023-07-09T13:49:29;24.20;99.90
48860;DHT22;34679;51.436;-2.518;2023-07-09T13:51:57;24.20;99.90
48860;DHT22;34679;51.436;-2.518;2023-07-09T13:54:25;24.10;99.90
48860;DHT22;34679;51.436;-2.518;2023-07-09T13:56:51;24.20;99.90
48860;DHT22;34679;51.436;-2.518;2023-07-09T13:59:20;24.30;99.90
48860;DHT22;34679;51.436;-2.518;2023-07-09T14:01:47;24.30;99.90
48860;DHT22;34679;51.436;-2.518;2023-07-09T14:04:15;24.20;99.90
48860;DHT22;34679;51.436;-2.518;2023-07-09T14:06:43;24.30;99.90
48860;DHT22;34679;51.436;-2.518;2023-07-09T14:09:10;24.30;99.90
48860;DHT22;34679;51.436;-2.518;2023-07-09T14:11:50;24.20;99.90
48860;DHT22;34679;51.436;-2.518;2023-07-09T14:14:23;24.20;99.90
48860;DHT22;34679;51.436;-2.518;2023-07-09T14:16:50;24.10;99.90
48860;DHT22;34679;51.436;-2.518;2023-07-09T14:19:21;23.80;99.90
48860;DHT22;34679;51.436;-2.518;2023-07-09T14:21:48;23.60;99.90
48860;DHT22;34679;51.436;-2.518;2023-07-09T14:24:26;23.60;99.90
48860;DHT22;34679;51.436;-2.518;2023-07-09T14:26:55;23.50;99.90
48860;DHT22;34679;51.436;-2.518;2023-07-09T14:29:21;23.60;99.90
48860;DHT22;34679;51.436;-2.518;2023-07-09T14:31:47;23.80;99.90
48860;DHT22;34679;51.436;-2.518;2023-07-09T14:34:23;24.10;99.90
48860;DHT22;34679;51.436;-2.518;2023-07-09T14:36:51;24.30;99.90
48860;DHT22;34679;51.436;-2.518;2023-07-09T14:39:17;24.40;99.90
48860;DHT22;34679;51.436;-2.518;2023-07-09T14:41:43;24.50;99.50
48860;DHT22;34679;51.436;-2.518;2023-07-09T14:46:41;24.50;99.90
48860;DHT22;34679;51.436;-2.518;2023-07-09T14:49:07;24.40;99.90
48860;DHT22;34679;51.436;-2.518;2023-07-09T14:51:33;24.50;99.70
48860;DHT22;34679;51.436;-2.518;2023-07-09T14:53:58;24.40;99.90
48860;DHT22;34679;51.436;-2.518;2023-07-09T14:56:24;24.20;99.90
48860;DHT22;34679;51.436;-2.518;2023-07-09T14:58:50;24.00;99.90
48860;DHT22;34679;51.436;-2.518;2023-07-09T15:01:15;23.90;99.90
48860;DHT22;34679;51.436;-2.518;2023-07-09T15:03:42;23.60;99.90
48860;DHT22;34679;51.436;-2.518;2023-07-09T15:06:08;23.50;99.90
48860;DHT22;34679;51.436;-2.518;2023-07-09T15:08:34;23.30;99.90
48860;DHT22;34679;51.436;-2.518;2023-07-09T15:11:00;23.10;99.90
48860;DHT22;34679;51.436;-2.518;2023-07-09T15:13:30;23.00;99.90
48860;DHT22;34679;51.436;-2.518;2023-07-09T15:15:57;23.10;99.90
48860;DHT22;34679;51.436;-2.518;2023-07-09T15:18:23;23.00;99.90
48860;DHT22;34679;51.436;-2.518;2023-07-09T15:20:57;23.10;99.90
48860;DHT22;34679;51.436;-2.518;2023-07-09T15:23:23;23.30;99.90
48860;DHT22;34679;51.436;-2.518;2023-07-09T15:25:51;23.50;99.90
48860;DHT22;34679;51.436;-2.518;2023-07-09T15:28:17;23.50;99.90
48860;DHT22;34679;51.436;-2.518;2023-07-09T15:30:43;23.60;99.90
48860;DHT22;34679;51.436;-2.518;2023-07-09T15:33:14;23.70;99.90
48860;DHT22;34679;51.436;-2.518;2023-07-09T15:35:44;23.80;99.90
48860;DHT22;34679;51.436;-2.518;2023-07-09T15:38:30;23.80;99.90
48860;DHT22;34679;51.436;-2.518;2023-07-09T15:40:57;23.80;99.90
48860;DHT22;34679;51.436;-2.518;2023-07-09T15:43:24;23.90;99.90
48860;DHT22;34679;51.436;-2.518;2023-07-09T15:45:52;23.80;99.90
48860;DHT22;34679;51.436;-2.518;2023-07-09T15:48:26;23.50;99.90
48860;DHT22;34679;51.436;-2.518;2023-07-09T15:50:53;23.50;99.90
48860;DHT22;34679;51.436;-2.518;2023-07-09T15:53:19;23.50;99.90
48860;DHT22;34679;51.436;-2.518;2023-07-09T15:55:46;23.50;99.90
48860;DHT22;34679;51.436;-2.518;2023-07-09T15:58:21;23.50;99.90
48860;DHT22;34679;51.436;-2.518;2023-07-09T16:00:49;23.50;99.90
48860;DHT22;34679;51.436;-2.518;2023-07-09T16:03:15;23.50;99.90
48860;DHT22;34679;51.436;-2.518;2023-07-09T16:05:41;23.30;99.90
48860;DHT22;34679;51.436;-2.518;2023-07-09T16:08:07;23.20;99.90
48860;DHT22;34679;51.436;-2.518;2023-07-09T16:10:33;23.10;99.90
48860;DHT22;34679;51.436;-2.518;2023-07-09T16:12:59;23.10;99.90
48860;DHT22;34679;51.436;-2.518;2023-07-09T16:15:25;23.30;99.90
48860;DHT22;34679;51.436;-2.518;2023-07-09T16:17:51;23.50;99.90